sensor_id;sensor_type;location;lat;lon;timestamp;pressure;altitude;pressure_sealevel;temperature;humidity
77877;BME280;67251;50.844;7.978;2023-09-12T00:00:39;98474.19;;;16.47;100.00
77877;BME280;67251;50.844;7.978;2023-09-12T00:03:05;98470.91;;;16.45;100.00
77877;BME280;67251;50.844;7.978;2023-09-12T00:05:30;98481.72;;;16.45;100.00
77877;BME280;67251;50.844;7.978;2023-09-12T00:07:56;98467.94;;;16.46;100.00
77877;BME280;67251;50.844;7.978;2023-09-12T00:10:21;98469.34;;;16.49;100.00
77877;BME280;67251;50.844;7.978;2023-09-12T00:12:46;98461.81;;;16.51;100.00
77877;BME280;67251;50.844;7.978;2023-09-12T00:15:12;98461.88;;;16.56;100.00
77877;BME280;67251;50.844;7.978;2023-09-12T00:17:38;98458.69;;;16.59;100.00
77877;BME280;67251;50.844;7.978;2023-09-12T00:20:03;98463.53;;;16.57;100.00
77877;BME280;67251;50.844;7.978;2023-09-12T00:22:31;98461.06;;;16.55;100.00
77877;BME280;67251;50.844;7.978;2023-09-12T00:24:57;98451.66;;;16.58;100.00
77877;BME280;67251;50.844;7.978;2023-09-12T00:27:22;98451.41;;;16.59;100.00
77877;BME280;67251;50.844;7.978;2023-09-12T00:29:47;98457.59;;;16.60;100.00
77877;BME280;67251;50.844;7.978;2023-09-12T00:32:13;98452.78;;;16.62;100.00
77877;BME280;67251;50.844;7.978;2023-09-12T00:34:38;98456.78;;;16.59;100.00
77877;BME280;67251;50.844;7.978;2023-09-12T00:37:04;98449.22;;;16.56;100.00
77877;BME280;67251;50.844;7.978;2023-09-12T00:39:29;98441.59;;;16.53;100.00
77877;BME280;67251;50.844;7.978;2023-09-12T00:41:55;98437.50;;;16.51;100.00
77877;BME280;67251;50.844;7.978;2023-09-12T00:44:21;98433.16;;;16.50;100.00
77877;BME280;67251;50.844;7.978;2023-09-12T00:46:47;98433.44;;;16.48;100.00
77877;BME280;67251;50.844;7.978;2023-09-12T00:49:14;98423.75;;;16.52;100.00
77877;BME280;67251;50.844;7.978;2023-09-12T00:51:40;98412.22;;;16.57;100.00
77877;BME280;67251;50.844;7.978;2023-09-12T00:54:07;98412.00;;;16.64;100.00
77877;BME280;67251;50.844;7.978;2023-09-12T00:56:32;98414.78;;;16.69;100.00
77877;BME280;67251;50.844;7.978;2023-09-12T00:58:58;98414.22;;;16.67;100.00
77877;BME280;67251;50.844;7.978;2023-09-12T01:01:23;98431.72;;;16.64;100.00
77877;BME280;67251;50.844;7.978;2023-09-12T01:03:49;98434.97;;;16.61;100.00
77877;BME280;67251;50.844;7.978;2023-09-12T01:06:17;98438.41;;;16.56;100.00
77877;BME280;67251;50.844;7.978;2023-09-12T01:08:45;98433.97;;;16.50;100.00
77877;BME280;67251;50.844;7.978;2023-09-12T01:11:11;98432.22;;;16.39;100.00
77877;BME280;67251;50.844;7.978;2023-09-12T01:13:37;98432.72;;;16.36;100.00
77877;BME280;67251;50.844;7.978;2023-09-12T01:16:02;98421.56;;;16.32;100.00
77877;BME280;67251;50.844;7.978;2023-09-12T01:18:27;98416.19;;;16.32;100.00
77877;BME280;67251;50.844;7.978;2023-09-12T01:23:53;98419.94;;;16.31;100.00
77877;BME280;67251;50.844;7.978;2023-09-12T01:26:53;98407.25;;;16.32;100.00
77877;BME280;67251;50.844;7.978;2023-09-12T01:29:21;98401.06;;;16.31;100.00
77877;BME280;67251;50.844;7.978;2023-09-12T01:31:49;98411.03;;;16.31;100.00
77877;BME280;67251;50.844;7.978;2023-09-12T01:34:14;98425.50;;;16.42;100.00
77877;BME280;67251;50.844;7.978;2023-09-12T01:36:40;98412.50;;;16.39;100.00
77877;BME280;67251;50.844;7.978;2023-09-12T01:39:05;98409.22;;;16.36;100.00
77877;BME280;67251;50.844;7.978;2023-09-12T01:41:35;98415.13;;;16.33;100.00
77877;BME280;67251;50.844;7.978;2023-09-12T01:44:04;98408.84;;;16.28;100.00
77877;BME280;67251;50.844;7.978;2023-09-12T01:50:00;98406.16;;;16.28;100.00
77877;BME280;67251;50.844;7.978;2023-09-12T01:52:26;98408.59;;;16.29;100.00
77877;BME280;67251;50.844;7.978;2023-09-12T01:54:53;98411.56;;;16.28;100.00
77877;BME280;67251;50.844;7.978;2023-09-12T01:57:19;98404.81;;;16.30;100.00
77877;BME280;67251;50.844;7.978;2023-09-12T01:59:48;98413.47;;;16.32;100.00
77877;BME280;67251;50.844;7.978;2023-09-12T02:02:15;98414.25;;;16.28;100.00
77877;BME280;67251;50.844;7.978;2023-09-12T02:04:41;98423.97;;;16.29;100.00
77877;BME280;67251;50.844;7.978;2023-09-12T02:07:06;98429.59;;;16.27;100.00
77877;BME280;67251;50.844;7.978;2023-09-12T02:09:32;98433.63;;;16.25;100.00
77877;BME280;67251;50.844;7.978;2023-09-12T02:11:57;98422.03;;;16.24;100.00
77877;BME280;67251;50.844;7.978;2023-09-12T02:14:22;98428.25;;;16.25;100.00
77877;BME280;67251;50.844;7.978;2023-09-12T02:16:48;98425.78;;;16.23;100.00
77877;BME280;67251;50.844;7.978;2023-09-12T02:19:13;98431.19;;;16.23;100.00
77877;BME280;67251;50.844;7.978;2023-09-12T02:21:38;98427.09;;;16.21;100.00
77877;BME280;67251;50.844;7.978;2023-09-12T02:24:04;98422.44;;;16.16;100.00
77877;BME280;67251;50.844;7.978;2023-09-12T02:26:29;98422.69;;;16.15;100.00
77877;BME280;67251;50.844;7.978;2023-09-12T02:28:55;98425.63;;;16.13;100.00
77877;BME280;67251;50.844;7.978;2023-09-12T02:31:20;98424.25;;;16.10;100.00
77877;BME280;67251;50.844;7.978;2023-09-12T02:33:45;98429.88;;;16.09;100.00
77877;BME280;67251;50.844;7.978;2023-09-12T02:36:11;98430.72;;;16.09;100.00
77877;BME280;67251;50.844;7.978;2023-09-12T02:38:36;98422.38;;;16.11;100.00
77877;BME280;67251;50.844;7.978;2023-09-12T02:41:02;98415.81;;;16.07;100.00
77877;BME280;67251;50.844;7.978;2023-09-12T02:43:27;98421.47;;;16.05;100.00
77877;BME280;67251;50.844;7.978;2023-09-12T02:45:53;98421.69;;;16.04;100.00
77877;BME280;67251;50.844;7.978;2023-09-12T02:48:18;98409.78;;;16.00;100.00
77877;BME280;67251;50.844;7.978;2023-09-12T02:50:44;98413.53;;;15.99;100.00
77877;BME280;67251;50.844;7.978;2023-09-12T02:53:10;98421.88;;;15.97;100.00
77877;BME280;67251;50.844;7.978;2023-09-12T02:55:39;98419.44;;;15.96;100.00
77877;BME280;67251;50.844;7.978;2023-09-12T02:58:04;98422.38;;;15.94;100.00
77877;BME280;67251;50.844;7.978;2023-09-12T03:00:30;98436.13;;;15.93;100.00
77877;BME280;67251;50.844;7.978;2023-09-12T03:02:55;98428.28;;;15.91;100.00
77877;BME280;67251;50.844;7.978;2023-09-12T03:05:20;98431.53;;;15.93;100.00
77877;BME280;67251;50.844;7.978;2023-09-12T03:07:46;98426.13;;;15.93;100.00
77877;BME280;67251;50.844;7.978;2023-09-12T03:10:11;98416.16;;;15.94;100.00
77877;BME280;67251;50.844;7.978;2023-09-12T03:12:36;98413.22;;;15.95;100.00
77877;BME280;67251;50.844;7.978;2023-09-12T03:15:02;98420.25;;;15.96;100.00
77877;BME280;67251;50.844;7.978;2023-09-12T03:17:28;98422.69;;;15.98;100.00
77877;BME280;67251;50.844;7.978;2023-09-12T03:19:54;98420.81;;;15.98;100.00
77877;BME280;67251;50.844;7.978;2023-09-12T03:22:19;98424.31;;;15.99;100.00
77877;BME280;67251;50.844;7.978;2023-09-12T03:24:44;98416.00;;;16.00;100.00
77877;BME280;67251;50.844;7.978;2023-09-12T03:27:11;98414.34;;;15.99;100.00
77877;BME280;67251;50.844;7.978;2023-09-12T03:29:36;98422.69;;;15.98;100.00
77877;BME280;67251;50.844;7.978;2023-09-12T03:32:02;98420.25;;;15.96;100.00
77877;BME280;67251;50.844;7.978;2023-09-12T03:34:28;98428.84;;;15.93;100.00
77877;BME280;67251;50.844;7.978;2023-09-12T03:36:53;98437.19;;;15.92;100.00
77877;BME280;67251;50.844;7.978;2023-09-12T03:39:18;98429.09;;;15.92;100.00
77877;BME280;67251;50.844;7.978;2023-09-12T03:41:44;98418.13;;;15.98;100.00
77877;BME280;67251;50.844;7.978;2023-09-12T03:44:09;98422.13;;;15.96;100.00
77877;BME280;67251;50.844;7.978;2023-09-12T03:46:35;98424.75;;;15.91;100.00
77877;BME280;67251;50.844;7.978;2023-09-12T03:49:00;98436.38;;;15.91;100.00
77877;BME280;67251;50.844;7.978;2023-09-12T03:51:25;98434.72;;;15.90;100.00
77877;BME280;67251;50.844;7.978;2023-09-12T03:53:51;98432.00;;;15.90;100.00
77877;BME280;67251;50.844;7.978;2023-09-12T03:56:16;98425.81;;;15.90;100.00
77877;BME280;67251;50.844;7.978;2023-09-12T03:58:45;98429.00;;;15.87;100.00
77877;BME280;67251;50.844;7.978;2023-09-12T04:01:11;98429.00;;;15.87;100.00
77877;BME280;67251;50.844;7.978;2023-09-12T04:03:36;98423.03;;;15.84;100.00
77877;BME280;67251;50.844;7.978;2023-09-12T04:06:01;98414.38;;;15.82;100.00
77877;BME280;67251;50.844;7.978;2023-09-12T04:08:27;98421.13;;;15.85;100.00
77877;BME280;67251;50.844;7.978;2023-09-12T04:10:52;98411.41;;;15.84;100.00
77877;BME280;67251;50.844;7.978;2023-09-12T04:13:17;98414.03;;;15.79;100.00
77877;BME280;67251;50.844;7.978;2023-09-12T04:15:43;98415.84;;;15.73;100.00
77877;BME280;67251;50.844;7.978;2023-09-12T04:18:08;98417.13;;;15.71;100.00
77877;BME280;67251;50.844;7.978;2023-09-12T04:20:34;98413.78;;;15.64;100.00
77877;BME280;67251;50.844;7.978;2023-09-12T04:23:02;98408.50;;;15.57;100.00
77877;BME280;67251;50.844;7.978;2023-09-12T04:25:29;98406.25;;;15.49;100.00
77877;BME280;67251;50.844;7.978;2023-09-12T04:27:54;98401.88;;;15.48;100.00
77877;BME280;67251;50.844;7.978;2023-09-12T04:30:20;98397.00;;;15.45;100.00
77877;BME280;67251;50.844;7.978;2023-09-12T04:32:45;98388.31;;;15.43;100.00
77877;BME280;67251;50.844;7.978;2023-09-12T04:35:10;98386.94;;;15.40;100.00
77877;BME280;67251;50.844;7.978;2023-09-12T04:37:36;98383.34;;;15.34;100.00
77877;BME280;67251;50.844;7.978;2023-09-12T04:40:02;98377.03;;;15.29;100.00
77877;BME280;67251;50.844;7.978;2023-09-12T04:42:30;98388.56;;;15.24;100.00
77877;BME280;67251;50.844;7.978;2023-09-12T04:44:56;98392.88;;;15.25;100.00
77877;BME280;67251;50.844;7.978;2023-09-12T04:47:21;98397.94;;;15.22;100.00
77877;BME280;67251;50.844;7.978;2023-09-12T04:49:47;98393.53;;;15.16;100.00
77877;BME280;67251;50.844;7.978;2023-09-12T04:52:12;98402.56;;;15.09;100.00
77877;BME280;67251;50.844;7.978;2023-09-12T04:54:38;98404.88;;;15.18;100.00
77877;BME280;67251;50.844;7.978;2023-09-12T04:57:03;98398.09;;;15.15;100.00
77877;BME280;67251;50.844;7.978;2023-09-12T04:59:28;98395.28;;;15.10;100.00
77877;BME280;67251;50.844;7.978;2023-09-12T05:01:54;98402.56;;;15.09;100.00
77877;BME280;67251;50.844;7.978;2023-09-12T05:04:19;98412.41;;;15.04;100.00
77877;BME280;67251;50.844;7.978;2023-09-12T05:06:45;98405.56;;;14.96;100.00
77877;BME280;67251;50.844;7.978;2023-09-12T05:09:10;98397.69;;;14.95;100.00
77877;BME280;67251;50.844;7.978;2023-09-12T05:11:36;98408.00;;;14.98;100.00
77877;BME280;67251;50.844;7.978;2023-09-12T05:14:01;98408.47;;;14.95;100.00
77877;BME280;67251;50.844;7.978;2023-09-12T05:16:29;98414.69;;;14.95;100.00
77877;BME280;67251;50.844;7.978;2023-09-12T05:18:54;98409.06;;;14.97;100.00
77877;BME280;67251;50.844;7.978;2023-09-12T05:21:20;98421.38;;;14.93;100.00
77877;BME280;67251;50.844;7.978;2023-09-12T05:23:45;98416.00;;;14.93;100.00
77877;BME280;67251;50.844;7.978;2023-09-12T05:26:10;98421.38;;;14.93;100.00
77877;BME280;67251;50.844;7.978;2023-09-12T05:28:37;98426.75;;;14.93;100.00
77877;BME280;67251;50.844;7.978;2023-09-12T05:31:03;98426.97;;;14.91;100.00
77877;BME280;67251;50.844;7.978;2023-09-12T05:33:28;98432.97;;;14.93;100.00
77877;BME280;67251;50.844;7.978;2023-09-12T05:35:53;98431.09;;;14.94;100.00
77877;BME280;67251;50.844;7.978;2023-09-12T05:38:19;98438.69;;;14.97;100.00
77877;BME280;67251;50.844;7.978;2023-09-12T05:40:44;98429.66;;;15.03;100.00
77877;BME280;67251;50.844;7.978;2023-09-12T05:43:09;98432.78;;;15.12;100.00
77877;BME280;67251;50.844;7.978;2023-09-12T05:45:35;98416.81;;;15.22;100.00
77877;BME280;67251;50.844;7.978;2023-09-12T05:48:00;98424.25;;;15.31;100.00
77877;BME280;67251;50.844;7.978;2023-09-12T05:50:25;98409.88;;;15.43;100.00
77877;BME280;67251;50.844;7.978;2023-09-12T05:52:51;98407.63;;;15.51;100.00
77877;BME280;67251;50.844;7.978;2023-09-12T05:55:16;98411.22;;;15.57;100.00
77877;BME280;67251;50.844;7.978;2023-09-12T05:57:43;98412.94;;;15.63;100.00
77877;BME280;67251;50.844;7.978;2023-09-12T06:00:09;98413.63;;;15.70;100.00
77877;BME280;67251;50.844;7.978;2023-09-12T06:02:40;98410.13;;;15.87;100.00
77877;BME280;67251;50.844;7.978;2023-09-12T06:05:07;98403.00;;;15.97;100.00
77877;BME280;67251;50.844;7.978;2023-09-12T06:07:34;98395.13;;;16.13;100.00
77877;BME280;67251;50.844;7.978;2023-09-12T06:09:59;98396.63;;;16.42;100.00
77877;BME280;67251;50.844;7.978;2023-09-12T06:12:24;98396.22;;;16.72;100.00
77877;BME280;67251;50.844;7.978;2023-09-12T06:14:51;98397.56;;;16.97;100.00
77877;BME280;67251;50.844;7.978;2023-09-12T06:17:16;98402.78;;;17.30;100.00
77877;BME280;67251;50.844;7.978;2023-09-12T06:19:42;98404.66;;;17.57;100.00
77877;BME280;67251;50.844;7.978;2023-09-12T06:22:08;98400.16;;;18.00;100.00
77877;BME280;67251;50.844;7.978;2023-09-12T06:24:33;98406.88;;;18.34;99.56
77877;BME280;67251;50.844;7.978;2023-09-12T06:26:58;98415.59;;;18.42;96.88
77877;BME280;67251;50.844;7.978;2023-09-12T06:29:24;98410.19;;;18.47;96.45
77877;BME280;67251;50.844;7.978;2023-09-12T06:31:49;98415.25;;;18.75;95.38
77877;BME280;67251;50.844;7.978;2023-09-12T06:34:14;98409.38;;;18.99;94.21
77877;BME280;67251;50.844;7.978;2023-09-12T06:36:40;98413.75;;;19.15;93.19
77877;BME280;67251;50.844;7.978;2023-09-12T06:39:08;98416.47;;;19.15;92.75
77877;BME280;67251;50.844;7.978;2023-09-12T06:41:33;98417.31;;;19.21;92.54
77877;BME280;67251;50.844;7.978;2023-09-12T06:43:58;98411.38;;;19.44;91.64
77877;BME280;67251;50.844;7.978;2023-09-12T06:46:24;98416.84;;;19.70;89.98
77877;BME280;67251;50.844;7.978;2023-09-12T06:48:50;98418.19;;;20.08;88.69
77877;BME280;67251;50.844;7.978;2023-09-12T06:51:16;98414.06;;;20.41;86.46
77877;BME280;67251;50.844;7.978;2023-09-12T06:53:41;98409.94;;;20.64;84.96
77877;BME280;67251;50.844;7.978;2023-09-12T06:56:07;98414.88;;;20.47;85.15
77877;BME280;67251;50.844;7.978;2023-09-12T06:58:33;98419.00;;;20.13;86.70
77877;BME280;67251;50.844;7.978;2023-09-12T07:01:02;98427.97;;;19.78;88.34
77877;BME280;67251;50.844;7.978;2023-09-12T07:03:28;98432.28;;;19.49;89.64
77877;BME280;67251;50.844;7.978;2023-09-12T07:05:54;98430.91;;;19.41;90.34
77877;BME280;67251;50.844;7.978;2023-09-12T07:08:19;98425.50;;;20.17;87.03
77877;BME280;67251;50.844;7.978;2023-09-12T07:10:45;98416.59;;;22.20;77.65
77877;BME280;67251;50.844;7.978;2023-09-12T07:13:11;98412.47;;;24.08;66.98
77877;BME280;67251;50.844;7.978;2023-09-12T07:15:36;98415.25;;;25.45;61.62
77877;BME280;67251;50.844;7.978;2023-09-12T07:18:02;98412.03;;;26.73;58.67
77877;BME280;67251;50.844;7.978;2023-09-12T07:20:28;98417.84;;;28.07;55.06
77877;BME280;67251;50.844;7.978;2023-09-12T07:22:53;98413.50;;;28.91;52.07
77877;BME280;67251;50.844;7.978;2023-09-12T07:25:18;98412.50;;;29.88;48.74
77877;BME280;67251;50.844;7.978;2023-09-12T07:27:46;98412.84;;;30.65;45.96
77877;BME280;67251;50.844;7.978;2023-09-12T07:30:11;98402.00;;;31.33;44.16
77877;BME280;67251;50.844;7.978;2023-09-12T07:32:37;98411.53;;;31.88;43.23
77877;BME280;67251;50.844;7.978;2023-09-12T07:35:02;98398.94;;;32.19;41.72
77877;BME280;67251;50.844;7.978;2023-09-12T07:37:27;98398.84;;;32.31;41.01
77877;BME280;67251;50.844;7.978;2023-09-12T07:39:53;98394.25;;;32.23;40.16
77877;BME280;67251;50.844;7.978;2023-09-12T07:42:22;98390.75;;;32.38;40.58
77877;BME280;67251;50.844;7.978;2023-09-12T07:44:47;98391.28;;;32.91;38.96
77877;BME280;67251;50.844;7.978;2023-09-12T07:47:13;98402.59;;;33.02;38.83
77877;BME280;67251;50.844;7.978;2023-09-12T07:49:39;98400.47;;;32.95;38.18
77877;BME280;67251;50.844;7.978;2023-09-12T07:52:05;98396.75;;;33.23;38.58
77877;BME280;67251;50.844;7.978;2023-09-12T07:54:31;98387.44;;;33.89;36.44
77877;BME280;67251;50.844;7.978;2023-09-12T07:56:56;98383.34;;;34.68;35.30
77877;BME280;67251;50.844;7.978;2023-09-12T07:59:21;98387.59;;;35.11;34.69
77877;BME280;67251;50.844;7.978;2023-09-12T08:01:47;98393.69;;;35.20;34.03
77877;BME280;67251;50.844;7.978;2023-09-12T08:04:12;98394.41;;;34.91;34.97
77877;BME280;67251;50.844;7.978;2023-09-12T08:06:39;98398.25;;;35.05;34.36
77877;BME280;67251;50.844;7.978;2023-09-12T08:09:06;98399.06;;;35.06;34.69
77877;BME280;67251;50.844;7.978;2023-09-12T08:11:31;98399.47;;;35.08;34.40
77877;BME280;67251;50.844;7.978;2023-09-12T08:13:57;98405.94;;;35.16;34.37
77877;BME280;67251;50.844;7.978;2023-09-12T08:16:22;98404.00;;;35.46;34.77
77877;BME280;67251;50.844;7.978;2023-09-12T08:18:48;98406.78;;;36.10;33.98
77877;BME280;67251;50.844;7.978;2023-09-12T08:21:13;98407.72;;;36.66;31.98
77877;BME280;67251;50.844;7.978;2023-09-12T08:23:39;98412.50;;;35.30;32.55
77877;BME280;67251;50.844;7.978;2023-09-12T08:26:04;98412.91;;;35.02;33.04
77877;BME280;67251;50.844;7.978;2023-09-12T08:28:29;98415.59;;;35.52;32.76
77877;BME280;67251;50.844;7.978;2023-09-12T08:30:55;98410.22;;;35.96;31.04
77877;BME280;67251;50.844;7.978;2023-09-12T08:33:20;98413.13;;;35.77;31.52
77877;BME280;67251;50.844;7.978;2023-09-12T08:35:45;98400.47;;;35.83;31.63
77877;BME280;67251;50.844;7.978;2023-09-12T08:38:11;98405.75;;;34.78;32.24
77877;BME280;67251;50.844;7.978;2023-09-12T08:40:37;98399.53;;;35.12;32.35
77877;BME280;67251;50.844;7.978;2023-09-12T08:43:03;98402.22;;;35.34;32.33
77877;BME280;67251;50.844;7.978;2023-09-12T08:45:29;98401.09;;;35.69;31.33
77877;BME280;67251;50.844;7.978;2023-09-12T08:47:57;98403.09;;;36.02;31.00
77877;BME280;67251;50.844;7.978;2023-09-12T08:50:23;98410.56;;;36.73;30.86
77877;BME280;67251;50.844;7.978;2023-09-12T08:52:50;98414.09;;;36.25;30.67
77877;BME280;67251;50.844;7.978;2023-09-12T08:55:15;98419.69;;;36.70;30.97
77877;BME280;67251;50.844;7.978;2023-09-12T08:57:42;98414.56;;;37.27;29.99
77877;BME280;67251;50.844;7.978;2023-09-12T09:00:09;98416.19;;;37.35;30.11
77877;BME280;67251;50.844;7.978;2023-09-12T09:02:43;98416.97;;;36.36;30.45
77877;BME280;67251;50.844;7.978;2023-09-12T09:05:10;98424.75;;;35.26;32.75
77877;BME280;67251;50.844;7.978;2023-09-12T09:07:41;98419.88;;;33.66;34.92
77877;BME280;67251;50.844;7.978;2023-09-12T09:10:10;98426.03;;;33.55;35.68
77877;BME280;67251;50.844;7.978;2023-09-12T09:12:37;98420.25;;;32.94;35.62
77877;BME280;67251;50.844;7.978;2023-09-12T09:15:23;98412.41;;;33.15;36.27
77877;BME280;67251;50.844;7.978;2023-09-12T09:17:54;98416.94;;;33.78;34.40
77877;BME280;67251;50.844;7.978;2023-09-12T09:20:31;98414.53;;;33.22;36.45
77877;BME280;67251;50.844;7.978;2023-09-12T09:23:01;98411.84;;;32.59;37.72
77877;BME280;67251;50.844;7.978;2023-09-12T09:25:30;98423.75;;;31.75;39.73
77877;BME280;67251;50.844;7.978;2023-09-12T09:27:56;98416.63;;;31.21;40.31
77877;BME280;67251;50.844;7.978;2023-09-12T09:30:39;98413.09;;;30.96;41.63
77877;BME280;67251;50.844;7.978;2023-09-12T09:33:05;98422.25;;;30.51;42.03
77877;BME280;67251;50.844;7.978;2023-09-12T09:35:31;98419.59;;;30.31;43.91
77877;BME280;67251;50.844;7.978;2023-09-12T09:37:56;98420.97;;;30.03;44.59
77877;BME280;67251;50.844;7.978;2023-09-12T09:40:22;98416.53;;;29.90;44.88
77877;BME280;67251;50.844;7.978;2023-09-12T09:42:53;98413.78;;;29.90;44.73
77877;BME280;67251;50.844;7.978;2023-09-12T09:45:18;98413.19;;;29.85;44.91
77877;BME280;67251;50.844;7.978;2023-09-12T09:47:44;98428.53;;;29.73;45.31
77877;BME280;67251;50.844;7.978;2023-09-12T09:50:14;98429.19;;;29.49;46.26
77877;BME280;67251;50.844;7.978;2023-09-12T09:52:39;98430.94;;;29.33;46.26
77877;BME280;67251;50.844;7.978;2023-09-12T09:55:06;98432.78;;;28.99;47.14
77877;BME280;67251;50.844;7.978;2023-09-12T09:57:37;98422.84;;;29.58;45.86
77877;BME280;67251;50.844;7.978;2023-09-12T10:00:03;98419.66;;;29.89;44.61
77877;BME280;67251;50.844;7.978;2023-09-12T10:02:35;98418.19;;;30.37;43.78
77877;BME280;67251;50.844;7.978;2023-09-12T10:05:04;98423.31;;;31.08;42.21
77877;BME280;67251;50.844;7.978;2023-09-12T10:07:37;98420.34;;;31.01;41.06
77877;BME280;67251;50.844;7.978;2023-09-12T10:10:03;98416.78;;;30.88;42.27
77877;BME280;67251;50.844;7.978;2023-09-12T10:12:35;98414.69;;;31.10;42.80
77877;BME280;67251;50.844;7.978;2023-09-12T10:15:01;98411.00;;;31.98;39.55
77877;BME280;67251;50.844;7.978;2023-09-12T10:17:32;98413.84;;;31.74;39.48
77877;BME280;67251;50.844;7.978;2023-09-12T10:20:02;98405.59;;;31.62;40.23
77877;BME280;67251;50.844;7.978;2023-09-12T10:22:39;98399.53;;;32.12;38.58
77877;BME280;67251;50.844;7.978;2023-09-12T10:25:07;98404.28;;;31.84;38.84
77877;BME280;67251;50.844;7.978;2023-09-12T10:27:33;98402.03;;;30.84;41.34
77877;BME280;67251;50.844;7.978;2023-09-12T10:29:58;98392.34;;;31.67;40.40
77877;BME280;67251;50.844;7.978;2023-09-12T10:32:26;98389.47;;;32.83;39.20
77877;BME280;67251;50.844;7.978;2023-09-12T10:34:54;98394.59;;;33.16;39.22
77877;BME280;67251;50.844;7.978;2023-09-12T10:37:25;98387.50;;;32.99;38.85
77877;BME280;67251;50.844;7.978;2023-09-12T10:39:53;98393.97;;;32.40;38.11
77877;BME280;67251;50.844;7.978;2023-09-12T10:42:20;98383.59;;;32.53;40.62
77877;BME280;67251;50.844;7.978;2023-09-12T10:44:46;98389.72;;;33.10;38.96
77877;BME280;67251;50.844;7.978;2023-09-12T10:47:13;98379.63;;;33.37;36.33
77877;BME280;67251;50.844;7.978;2023-09-12T10:49:39;98377.19;;;33.35;35.89
77877;BME280;67251;50.844;7.978;2023-09-12T10:52:05;98386.59;;;33.66;37.44
77877;BME280;67251;50.844;7.978;2023-09-12T10:54:40;98377.75;;;33.99;35.85
77877;BME280;67251;50.844;7.978;2023-09-12T10:57:06;98377.44;;;34.04;35.46
77877;BME280;67251;50.844;7.978;2023-09-12T10:59:32;98375.03;;;34.02;35.31
77877;BME280;67251;50.844;7.978;2023-09-12T11:04:54;98384.31;;;33.91;35.37
77877;BME280;67251;50.844;7.978;2023-09-12T11:12:46;98383.19;;;33.02;37.92
77877;BME280;67251;50.844;7.978;2023-09-12T11:15:13;98380.00;;;33.00;38.60
77877;BME280;67251;50.844;7.978;2023-09-12T11:17:41;98371.19;;;32.47;38.58
77877;BME280;67251;50.844;7.978;2023-09-12T11:20:08;98378.38;;;32.20;39.64
77877;BME280;67251;50.844;7.978;2023-09-12T11:22:37;98370.22;;;31.95;39.00
77877;BME280;67251;50.844;7.978;2023-09-12T11:25:05;98369.72;;;31.77;40.05
77877;BME280;67251;50.844;7.978;2023-09-12T11:27:45;98369.13;;;31.84;38.95
77877;BME280;67251;50.844;7.978;2023-09-12T11:30:26;98361.19;;;31.83;39.34
77877;BME280;67251;50.844;7.978;2023-09-12T11:32:56;98368.97;;;31.80;39.64
77877;BME280;67251;50.844;7.978;2023-09-12T11:35:23;98364.28;;;31.53;40.76
77877;BME280;67251;50.844;7.978;2023-09-12T11:37:50;98361.66;;;31.44;40.85
77877;BME280;67251;50.844;7.978;2023-09-12T11:40:45;98355.47;;;31.63;41.08
77877;BME280;67251;50.844;7.978;2023-09-12T11:43:20;98353.69;;;31.71;38.75
77877;BME280;67251;50.844;7.978;2023-09-12T11:45:47;98359.06;;;31.79;37.94
77877;BME280;67251;50.844;7.978;2023-09-12T11:48:13;98357.59;;;31.82;38.85
77877;BME280;67251;50.844;7.978;2023-09-12T11:50:38;98368.53;;;31.50;37.19
77877;BME280;67251;50.844;7.978;2023-09-12T11:53:09;98366.53;;;31.35;39.50
77877;BME280;67251;50.844;7.978;2023-09-12T11:55:36;98363.22;;;31.29;40.92
77877;BME280;67251;50.844;7.978;2023-09-12T11:58:03;98364.00;;;31.30;39.70
77877;BME280;67251;50.844;7.978;2023-09-12T12:00:29;98361.69;;;31.32;40.12
77877;BME280;67251;50.844;7.978;2023-09-12T12:02:55;98363.22;;;31.29;41.79
77877;BME280;67251;50.844;7.978;2023-09-12T12:05:21;98367.06;;;31.41;41.19
77877;BME280;67251;50.844;7.978;2023-09-12T12:07:48;98370.41;;;31.74;40.00
77877;BME280;67251;50.844;7.978;2023-09-12T12:10:13;98364.31;;;31.97;40.14
77877;BME280;67251;50.844;7.978;2023-09-12T12:12:39;98356.56;;;31.87;39.87
77877;BME280;67251;50.844;7.978;2023-09-12T12:15:10;98350.50;;;31.28;41.00
77877;BME280;67251;50.844;7.978;2023-09-12T12:17:42;98354.28;;;31.24;40.58
77877;BME280;67251;50.844;7.978;2023-09-12T12:20:09;98354.84;;;31.01;39.28
77877;BME280;67251;50.844;7.978;2023-09-12T12:22:37;98350.22;;;31.05;41.22
77877;BME280;67251;50.844;7.978;2023-09-12T12:25:10;98354.72;;;31.10;40.93
77877;BME280;67251;50.844;7.978;2023-09-12T12:27:39;98347.47;;;31.05;41.10
77877;BME280;67251;50.844;7.978;2023-09-12T12:30:13;98351.19;;;30.73;38.95
77877;BME280;67251;50.844;7.978;2023-09-12T12:32:44;98351.19;;;30.73;40.60
77877;BME280;67251;50.844;7.978;2023-09-12T12:35:22;98346.69;;;29.98;40.54
77877;BME280;67251;50.844;7.978;2023-09-12T12:37:49;98348.84;;;30.26;42.10
77877;BME280;67251;50.844;7.978;2023-09-12T12:40:16;98345.16;;;30.46;40.25
77877;BME280;67251;50.844;7.978;2023-09-12T12:42:42;98352.31;;;30.60;40.01
77877;BME280;67251;50.844;7.978;2023-09-12T12:45:13;98344.25;;;30.54;40.04
77877;BME280;67251;50.844;7.978;2023-09-12T12:47:39;98345.94;;;30.35;42.56
77877;BME280;67251;50.844;7.978;2023-09-12T12:50:23;98346.25;;;30.09;43.16
77877;BME280;67251;50.844;7.978;2023-09-12T12:52:49;98340.94;;;30.03;41.99
77877;BME280;67251;50.844;7.978;2023-09-12T12:55:19;98336.09;;;29.88;42.81
77877;BME280;67251;50.844;7.978;2023-09-12T12:57:47;98338.53;;;29.69;43.01
77877;BME280;67251;50.844;7.978;2023-09-12T13:00:14;98339.47;;;29.61;45.18
77877;BME280;67251;50.844;7.978;2023-09-12T13:02:41;98326.63;;;29.77;42.91
77877;BME280;67251;50.844;7.978;2023-09-12T13:05:27;98322.22;;;30.09;43.91
77877;BME280;67251;50.844;7.978;2023-09-12T13:07:53;98323.41;;;30.57;42.57